createdAt,value
2022-11-14T00:01:13.020Z,98955.00
2022-11-14T00:04:00.540Z,98952.00
2022-11-14T00:06:48.030Z,98949.00
2022-11-14T00:09:35.583Z,98950.00
2022-11-14T00:12:23.074Z,98956.00
2022-11-14T00:15:11.878Z,98939.00
2022-11-14T00:17:59.337Z,98930.00
2022-11-14T00:20:53.749Z,98939.00
2022-11-14T00:23:41.288Z,98933.00
2022-11-14T00:26:29.121Z,98946.00
2022-11-14T00:29:16.767Z,98935.00
2022-11-14T00:32:04.566Z,98943.00
2022-11-14T00:34:52.042Z,98919.00
2022-11-14T00:37:39.521Z,98916.00
2022-11-14T00:40:27.115Z,98918.00
2022-11-14T00:43:15.258Z,98936.00
2022-11-14T00:46:02.742Z,98927.00
2022-11-14T00:48:50.210Z,98948.00
2022-11-14T00:51:37.675Z,98945.00
2022-11-14T00:54:26.830Z,98956.00
2022-11-14T00:57:14.259Z,98945.00
2022-11-14T01:00:01.812Z,98965.00
2022-11-14T01:02:49.401Z,98938.00
2022-11-14T01:05:50.060Z,98947.00
2022-11-14T01:08:37.661Z,98953.00
2022-11-14T01:11:25.195Z,98943.00
2022-11-14T01:14:12.680Z,98942.00
2022-11-14T01:17:00.158Z,98938.00
2022-11-14T01:19:47.625Z,98934.00
2022-11-14T01:22:35.150Z,98944.00
2022-11-14T01:25:22.650Z,98941.00
2022-11-14T01:28:13.944Z,98937.00
2022-11-14T01:31:22.325Z,98929.00
2022-11-14T01:34:10.371Z,98925.00
2022-11-14T01:36:57.953Z,98903.00
2022-11-14T01:39:45.415Z,98920.00
2022-11-14T01:42:32.971Z,98914.00
2022-11-14T01:46:06.437Z,98906.00
2022-11-14T01:48:56.572Z,98898.00
2022-11-14T01:52:24.494Z,98869.00
2022-11-14T01:55:12.092Z,98877.00
2022-11-14T01:58:00.905Z,98866.00
2022-11-14T02:00:48.426Z,98870.00
2022-11-14T02:03:40.097Z,98871.00
2022-11-14T02:06:31.638Z,98866.00
2022-11-14T02:09:19.191Z,98862.00
2022-11-14T02:12:12.533Z,98873.00
2022-11-14T02:15:01.053Z,98874.00
2022-11-14T02:17:48.664Z,98871.00
2022-11-14T02:20:43.331Z,98860.00
2022-11-14T02:23:32.891Z,98857.00
2022-11-14T02:26:22.546Z,98860.00
2022-11-14T02:29:11.586Z,98874.00
2022-11-14T02:31:59.962Z,98886.00
2022-11-14T02:34:47.422Z,98870.00
2022-11-14T02:37:34.962Z,98866.00
2022-11-14T02:40:22.461Z,98856.00
2022-11-14T02:43:10.011Z,98865.00
2022-11-14T02:46:00.310Z,98863.00
2022-11-14T02:48:51.831Z,98854.00
2022-11-14T02:51:39.815Z,98848.00
2022-11-14T02:54:27.260Z,98866.00
2022-11-14T02:57:14.661Z,98866.00
2022-11-14T03:00:02.253Z,98868.00
2022-11-14T03:02:49.713Z,98872.00
2022-11-14T03:05:37.300Z,98871.00
2022-11-14T03:08:24.750Z,98864.00
2022-11-14T03:11:12.259Z,98864.00
2022-11-14T03:14:02.826Z,98858.00
2022-11-14T03:16:50.305Z,98859.00
2022-11-14T03:19:37.741Z,98854.00
2022-11-14T03:22:25.480Z,98852.00
2022-11-14T03:25:12.991Z,98844.00
2022-11-14T03:28:00.532Z,98835.00
2022-11-14T03:30:48.095Z,98834.00
2022-11-14T03:33:36.497Z,98826.00
2022-11-14T03:36:24.152Z,98817.00
2022-11-14T03:39:11.716Z,98806.00
2022-11-14T03:41:59.296Z,98795.00
2022-11-14T03:44:46.927Z,98801.00
2022-11-14T03:47:34.425Z,98782.00
2022-11-14T03:50:21.872Z,98792.00
2022-11-14T03:53:10.365Z,98809.00
2022-11-14T03:55:58.042Z,98805.00
2022-11-14T03:58:45.546Z,98807.00
2022-11-14T04:01:33.080Z,98809.00
2022-11-14T04:04:21.165Z,98815.00
2022-11-14T04:07:08.678Z,98815.00
2022-11-14T04:09:56.221Z,98812.00
2022-11-14T04:12:52.454Z,98813.00
2022-11-14T04:15:40.136Z,98793.00
2022-11-14T04:18:28.752Z,98795.00
2022-11-14T04:21:16.592Z,98801.00
2022-11-14T04:24:09.919Z,98792.00
2022-11-14T04:26:58.937Z,98782.00
2022-11-14T04:29:46.378Z,98780.00
2022-11-14T04:32:33.902Z,98777.00
2022-11-14T04:35:21.391Z,98783.00
2022-11-14T04:38:10.872Z,98782.00
2022-11-14T04:40:58.436Z,98783.00
2022-11-14T04:43:50.635Z,98781.00
2022-11-14T04:46:38.429Z,98785.00
2022-11-14T04:49:25.868Z,98791.00
2022-11-14T04:52:13.377Z,98802.00
2022-11-14T04:55:00.954Z,98806.00
2022-11-14T04:57:48.632Z,98793.00
2022-11-14T05:00:36.152Z,98801.00
2022-11-14T05:03:24.762Z,98800.00
2022-11-14T05:06:12.251Z,98795.00
2022-11-14T05:08:59.701Z,98796.00
2022-11-14T05:11:47.201Z,98795.00
2022-11-14T05:14:34.652Z,98774.00
2022-11-14T05:17:22.350Z,98804.00
2022-11-14T05:20:10.812Z,98809.00
2022-11-14T05:22:58.750Z,98819.00
2022-11-14T05:25:46.733Z,98820.00
2022-11-14T05:28:34.533Z,98820.00
2022-11-14T05:31:21.937Z,98823.00
2022-11-14T05:34:09.372Z,98825.00
2022-11-14T05:36:56.817Z,98837.00
2022-11-14T05:39:44.293Z,98824.00
2022-11-14T05:42:32.061Z,98823.00
2022-11-14T05:45:19.552Z,98814.00
2022-11-14T05:48:07.007Z,98812.00
2022-11-14T05:51:00.154Z,98800.00
2022-11-14T05:53:47.578Z,98796.00
2022-11-14T05:56:36.460Z,98792.00
2022-11-14T05:59:24.135Z,98794.00
2022-11-14T06:02:11.712Z,98800.00
2022-11-14T06:04:59.369Z,98780.00
2022-11-14T06:07:47.142Z,98763.00
2022-11-14T06:10:37.787Z,98749.00
2022-11-14T06:13:25.317Z,98746.00
2022-11-14T06:16:21.891Z,98739.00
2022-11-14T06:19:09.377Z,98731.00
2022-11-14T06:21:56.866Z,98733.00
2022-11-14T06:24:44.258Z,98747.00
2022-11-14T06:27:32.046Z,98742.00
2022-11-14T06:30:19.641Z,98736.00
2022-11-14T06:33:07.319Z,98761.00
2022-11-14T06:36:06.682Z,98773.00
2022-11-14T06:38:54.295Z,98774.00
2022-11-14T06:41:41.739Z,98776.00
2022-11-14T06:44:31.064Z,98777.00
2022-11-14T06:47:18.786Z,98783.00
2022-11-14T06:50:07.225Z,98786.00
2022-11-14T06:52:57.037Z,98772.00
2022-11-14T06:55:56.245Z,98778.00
2022-11-14T06:58:47.688Z,98777.00
2022-11-14T07:01:35.238Z,98797.00
2022-11-14T07:04:22.738Z,98785.00
2022-11-14T07:07:10.264Z,98805.00
2022-11-14T07:09:58.982Z,98801.00
2022-11-14T07:12:46.472Z,98810.00
2022-11-14T07:15:33.883Z,98821.00
2022-11-14T07:18:21.597Z,98822.00
2022-11-14T07:21:09.273Z,98821.00
2022-11-14T07:23:57.837Z,98804.00
2022-11-14T07:26:46.716Z,98786.00
2022-11-14T07:29:34.687Z,98794.00
2022-11-14T07:32:22.212Z,98788.00
2022-11-14T07:35:09.813Z,98793.00
2022-11-14T07:38:06.534Z,98784.00
2022-11-14T07:41:07.137Z,98787.00
2022-11-14T07:43:54.611Z,98802.00
2022-11-14T07:46:42.077Z,98808.00
2022-11-14T07:49:29.558Z,98801.00
2022-11-14T07:52:16.972Z,98804.00
2022-11-14T07:55:04.856Z,98799.00
2022-11-14T07:57:59.056Z,98799.00
2022-11-14T08:00:46.706Z,98797.00
2022-11-14T08:03:35.332Z,98788.00
2022-11-14T08:06:22.916Z,98782.00
2022-11-14T08:09:10.451Z,98791.00
2022-11-14T08:11:57.950Z,98786.00
2022-11-14T08:14:45.458Z,98784.00
2022-11-14T08:17:33.172Z,98794.00
2022-11-14T08:20:20.622Z,98786.00
2022-11-14T08:23:08.147Z,98772.00
2022-11-14T08:25:55.613Z,98767.00
2022-11-14T08:28:43.091Z,98762.00
2022-11-14T08:31:30.577Z,98772.00
2022-11-14T08:34:18.072Z,98762.00
2022-11-14T08:37:05.562Z,98770.00
2022-11-14T08:39:53.079Z,98769.00
2022-11-14T08:42:40.652Z,98771.00
2022-11-14T08:45:29.093Z,98762.00
2022-11-14T08:48:16.643Z,98749.00
2022-11-14T08:51:06.916Z,98758.00
2022-11-14T08:53:54.431Z,98754.00
2022-11-14T08:56:41.972Z,98759.00
2022-11-14T08:59:29.466Z,98757.00
2022-11-14T09:02:17.064Z,98753.00
2022-11-14T09:05:05.045Z,98740.00
2022-11-14T09:07:52.676Z,98744.00
2022-11-14T09:10:40.178Z,98740.00
2022-11-14T09:13:28.234Z,98744.00
2022-11-14T09:16:16.048Z,98738.00
2022-11-14T09:19:03.586Z,98740.00
2022-11-14T09:21:51.112Z,98742.00
2022-11-14T09:24:38.567Z,98744.00
2022-11-14T09:27:27.788Z,98736.00
2022-11-14T09:30:15.966Z,98734.00
2022-11-14T09:33:11.073Z,98733.00
2022-11-14T09:36:01.694Z,98735.00
2022-11-14T09:38:51.767Z,98734.00
2022-11-14T09:42:26.792Z,98724.00
2022-11-14T09:45:17.441Z,98722.00
2022-11-14T09:48:21.317Z,98712.00
2022-11-14T09:51:17.373Z,98712.00
2022-11-14T09:54:32.447Z,98714.00
2022-11-14T09:57:21.450Z,98710.00
2022-11-14T10:00:21.520Z,98708.00
2022-11-14T10:03:20.992Z,98698.00
2022-11-14T10:06:18.981Z,98695.00
2022-11-14T10:10:03.451Z,98678.00
2022-11-14T10:13:28.773Z,98684.00
2022-11-14T10:16:34.612Z,98684.00
2022-11-14T10:19:49.893Z,98684.00
2022-11-14T10:23:01.546Z,98673.00
2022-11-14T10:26:02.322Z,98663.00
2022-11-14T10:29:15.787Z,98671.00
2022-11-14T10:32:41.494Z,98680.00
2022-11-14T10:35:41.713Z,98674.00
2022-11-14T10:39:13.181Z,98659.00
2022-11-14T10:42:11.624Z,98655.00
2022-11-14T10:45:17.931Z,98672.00
2022-11-14T10:48:25.731Z,98665.00
2022-11-14T10:51:37.832Z,98668.00
2022-11-14T10:54:34.475Z,98649.00
2022-11-14T10:57:23.609Z,98648.00
2022-11-14T11:00:19.126Z,98645.00
2022-11-14T11:03:07.827Z,98640.00
2022-11-14T11:05:58.503Z,98643.00
2022-11-14T11:09:04.857Z,98636.00
2022-11-14T11:12:01.730Z,98640.00
2022-11-14T11:15:13.542Z,98651.00
2022-11-14T11:18:30.294Z,98641.00
2022-11-14T11:21:24.148Z,98636.00
2022-11-14T11:24:11.763Z,98633.00
2022-11-14T11:27:29.020Z,98632.00
2022-11-14T11:30:23.345Z,98625.00
2022-11-14T11:33:25.732Z,98621.00
2022-11-14T11:36:19.606Z,98610.00
2022-11-14T11:39:24.138Z,98618.00
2022-11-14T11:43:36.789Z,98612.00
2022-11-14T11:45:51.205Z,98603.00
2022-11-14T11:48:40.122Z,98590.00
2022-11-14T11:51:29.250Z,98581.00
2022-11-14T11:54:27.177Z,98577.00
2022-11-14T11:57:21.890Z,98584.00
2022-11-14T12:00:20.474Z,98580.00
2022-11-14T12:03:20.383Z,98574.00
2022-11-14T12:06:27.405Z,98585.00
2022-11-14T12:10:03.499Z,98587.00
2022-11-14T12:12:44.377Z,98590.00
2022-11-14T12:15:51.395Z,98589.00
2022-11-14T12:18:59.555Z,98593.00
2022-11-14T12:22:35.682Z,98593.00
2022-11-14T12:25:42.331Z,98588.00
2022-11-14T12:29:07.351Z,98588.00
2022-11-14T12:32:07.062Z,98584.00
2022-11-14T12:34:55.247Z,98588.00
2022-11-14T12:37:55.265Z,98582.00
2022-11-14T12:40:58.401Z,98586.00
2022-11-14T12:43:47.800Z,98578.00
2022-11-14T12:47:04.936Z,98588.00
2022-11-14T12:49:56.638Z,98584.00
2022-11-14T12:52:54.110Z,98586.00
2022-11-14T12:55:53.785Z,98574.00
2022-11-14T12:59:20.828Z,98573.00
2022-11-14T13:02:31.857Z,98579.00
2022-11-14T13:06:03.462Z,98574.00
2022-11-14T13:09:19.827Z,98572.00
2022-11-14T13:12:56.473Z,98560.00
2022-11-14T13:16:13.059Z,98556.00
2022-11-14T13:19:41.008Z,98566.00
2022-11-14T13:22:41.107Z,98558.00
2022-11-14T13:25:29.283Z,98563.00
2022-11-14T13:28:52.892Z,98564.00
2022-11-14T13:31:50.645Z,98565.00
2022-11-14T13:34:50.985Z,98557.00
2022-11-14T13:38:12.877Z,98551.00
2022-11-14T13:41:46.621Z,98544.00
2022-11-14T13:45:21.132Z,98553.00
2022-11-14T13:48:29.703Z,98549.00
2022-11-14T13:54:29.387Z,98554.00
2022-11-14T13:57:54.263Z,98555.00
2022-11-14T14:01:02.959Z,98554.00
2022-11-14T14:04:23.741Z,98548.00
2022-11-14T14:07:35.355Z,98555.00
2022-11-14T14:10:47.912Z,98545.00
2022-11-14T14:13:59.869Z,98549.00
2022-11-14T14:17:07.466Z,98539.00
2022-11-14T14:20:20.348Z,98520.00
2022-11-14T14:23:27.633Z,98518.00
2022-11-14T14:26:36.004Z,98519.00
2022-11-14T14:29:45.408Z,98520.00
2022-11-14T14:32:33.608Z,98510.00
2022-11-14T14:35:35.617Z,98509.00
2022-11-14T14:38:29.343Z,98513.00
2022-11-14T14:41:20.213Z,98522.00
2022-11-14T14:44:32.016Z,98526.00
2022-11-14T14:47:42.563Z,98521.00
2022-11-14T14:50:48.361Z,98511.00
2022-11-14T14:53:36.838Z,98512.00
2022-11-14T14:56:25.222Z,98501.00
2022-11-14T14:59:23.294Z,98500.00
2022-11-14T15:02:20.632Z,98491.00
2022-11-14T15:05:08.608Z,98487.00
2022-11-14T15:08:00.681Z,98491.00
2022-11-14T15:10:48.487Z,98491.00
2022-11-14T15:13:38.773Z,98497.00
2022-11-14T15:16:27.607Z,98506.00
2022-11-14T15:19:19.284Z,98517.00
2022-11-14T15:22:10.868Z,98523.00
2022-11-14T15:25:12.712Z,98515.00
2022-11-14T15:28:00.986Z,98507.00
2022-11-14T15:31:05.510Z,98509.00
2022-11-14T15:34:29.443Z,98511.00
2022-11-14T15:37:16.887Z,98519.00
2022-11-14T15:40:22.540Z,98520.00
2022-11-14T15:43:44.173Z,98525.00
2022-11-14T15:46:34.415Z,98521.00
2022-11-14T15:49:27.562Z,98521.00
2022-11-14T15:52:47.745Z,98518.00
2022-11-14T15:55:36.082Z,98520.00
2022-11-14T15:58:30.648Z,98516.00
2022-11-14T16:01:26.150Z,98513.00
2022-11-14T16:04:23.498Z,98516.00
2022-11-14T16:07:17.051Z,98522.00
2022-11-14T16:10:16.849Z,98523.00
2022-11-14T16:13:04.493Z,98511.00
2022-11-14T16:15:52.048Z,98510.00
2022-11-14T16:18:39.590Z,98512.00
2022-11-14T16:21:27.182Z,98510.00
2022-11-14T16:24:22.465Z,98520.00
2022-11-14T16:27:10.222Z,98525.00
2022-11-14T16:29:57.675Z,98523.00
2022-11-14T16:32:47.840Z,98527.00
2022-11-14T16:35:35.437Z,98525.00
2022-11-14T16:38:22.936Z,98526.00
2022-11-14T16:41:13.702Z,98521.00
2022-11-14T16:44:01.248Z,98528.00
2022-11-14T16:46:48.687Z,98521.00
2022-11-14T16:49:36.189Z,98523.00
2022-11-14T16:52:23.998Z,98530.00
2022-11-14T16:55:12.409Z,98529.00
2022-11-14T16:57:59.973Z,98539.00
2022-11-14T17:00:47.552Z,98537.00
2022-11-14T17:03:35.023Z,98531.00
2022-11-14T17:06:22.507Z,98537.00
2022-11-14T17:09:14.360Z,98530.00
2022-11-14T17:12:01.872Z,98527.00
2022-11-14T17:14:49.303Z,98527.00
2022-11-14T17:17:36.678Z,98542.00
2022-11-14T17:20:24.172Z,98547.00
2022-11-14T17:23:11.581Z,98543.00
2022-11-14T17:26:12.670Z,98543.00
2022-11-14T17:29:00.209Z,98541.00
2022-11-14T17:31:47.663Z,98539.00
2022-11-14T17:34:35.238Z,98543.00
2022-11-14T17:37:22.650Z,98538.00
2022-11-14T17:40:15.311Z,98545.00
2022-11-14T17:43:03.698Z,98545.00
2022-11-14T17:45:58.010Z,98552.00
2022-11-14T17:48:45.882Z,98541.00
2022-11-14T17:51:33.404Z,98539.00
2022-11-14T17:54:20.969Z,98551.00
2022-11-14T17:57:08.446Z,98549.00
2022-11-14T17:59:56.043Z,98553.00
2022-11-14T18:02:43.544Z,98552.00
2022-11-14T18:05:31.020Z,98556.00
2022-11-14T18:08:18.637Z,98560.00
2022-11-14T18:11:11.597Z,98559.00
2022-11-14T18:13:59.202Z,98562.00
2022-11-14T18:17:11.054Z,98569.00
2022-11-14T18:19:56.317Z,98582.00
2022-11-14T18:22:44.282Z,98586.00
2022-11-14T18:25:31.753Z,98582.00
2022-11-14T18:28:19.163Z,98592.00
2022-11-14T18:31:10.745Z,98588.00
2022-11-14T18:33:58.686Z,98595.00
2022-11-14T18:36:46.149Z,98596.00
2022-11-14T18:39:33.767Z,98598.00
2022-11-14T18:42:21.326Z,98604.00
2022-11-14T18:45:09.423Z,98597.00
2022-11-14T18:47:56.887Z,98600.00
2022-11-14T18:50:44.317Z,98595.00
2022-11-14T18:53:36.920Z,98600.00
2022-11-14T18:56:25.573Z,98598.00
2022-11-14T18:59:13.199Z,98600.00
2022-11-14T19:02:00.731Z,98596.00
2022-11-14T19:04:48.230Z,98607.00
2022-11-14T19:07:35.690Z,98604.00
2022-11-14T19:10:23.148Z,98598.00
2022-11-14T19:13:10.626Z,98602.00
2022-11-14T19:16:06.407Z,98614.00
2022-11-14T19:18:55.850Z,98619.00
2022-11-14T19:21:43.976Z,98624.00
2022-11-14T19:24:31.473Z,98618.00
2022-11-14T19:27:19.002Z,98623.00
2022-11-14T19:30:07.923Z,98621.00
2022-11-14T19:32:55.424Z,98630.00
2022-11-14T19:35:42.873Z,98624.00
2022-11-14T19:38:30.332Z,98625.00
2022-11-14T19:41:21.583Z,98627.00
2022-11-14T19:44:09.237Z,98619.00
2022-11-14T19:46:56.682Z,98621.00
2022-11-14T19:49:44.255Z,98631.00
2022-11-14T19:52:31.657Z,98633.00
2022-11-14T19:55:19.977Z,98635.00
2022-11-14T19:58:07.406Z,98632.00
2022-11-14T20:01:05.308Z,98638.00
2022-11-14T20:04:02.299Z,98637.00
2022-11-14T20:06:49.773Z,98646.00
2022-11-14T20:09:37.374Z,98647.00
2022-11-14T20:12:24.922Z,98648.00
2022-11-14T20:15:12.431Z,98641.00
2022-11-14T20:17:59.887Z,98642.00
2022-11-14T20:20:47.398Z,98636.00
2022-11-14T20:23:36.483Z,98635.00
2022-11-14T20:26:24.439Z,98650.00
2022-11-14T20:29:11.919Z,98652.00
2022-11-14T20:31:59.599Z,98656.00
2022-11-14T20:34:47.148Z,98658.00
2022-11-14T20:37:34.641Z,98668.00
2022-11-14T20:40:22.412Z,98662.00
2022-11-14T20:43:09.921Z,98657.00
2022-11-14T20:46:04.174Z,98651.00
2022-11-14T20:48:51.793Z,98650.00
2022-11-14T20:51:39.391Z,98649.00
2022-11-14T20:54:27.053Z,98650.00
2022-11-14T20:57:14.628Z,98649.00
2022-11-14T21:00:02.123Z,98647.00
2022-11-14T21:02:50.067Z,98642.00
2022-11-14T21:05:40.939Z,98640.00
2022-11-14T21:08:30.122Z,98635.00
2022-11-14T21:11:18.422Z,98636.00
2022-11-14T21:14:06.174Z,98645.00
2022-11-14T21:16:53.643Z,98636.00
2022-11-14T21:19:41.147Z,98644.00
2022-11-14T21:22:28.567Z,98636.00
2022-11-14T21:25:16.053Z,98634.00
2022-11-14T21:28:03.651Z,98635.00
2022-11-14T21:30:51.088Z,98629.00
2022-11-14T21:33:38.592Z,98634.00
2022-11-14T21:36:45.429Z,98630.00
2022-11-14T21:39:33.702Z,98622.00
2022-11-14T21:42:22.768Z,98617.00
2022-11-14T21:45:11.031Z,98628.00
2022-11-14T21:47:58.482Z,98625.00
2022-11-14T21:50:45.949Z,98626.00
2022-11-14T21:53:35.122Z,98623.00
2022-11-14T21:56:29.608Z,98625.00
2022-11-14T21:59:21.581Z,98619.00
2022-11-14T22:02:31.666Z,98627.00
2022-11-14T22:05:19.232Z,98632.00
2022-11-14T22:08:06.659Z,98633.00
2022-11-14T22:11:00.492Z,98634.00
2022-11-14T22:13:48.572Z,98625.00
2022-11-14T22:16:36.277Z,98631.00
2022-11-14T22:19:24.457Z,98633.00
2022-11-14T22:22:11.941Z,98624.00
2022-11-14T22:24:59.952Z,98632.00
2022-11-14T22:27:47.663Z,98635.00
2022-11-14T22:30:35.119Z,98636.00
2022-11-14T22:33:22.577Z,98632.00
2022-11-14T22:36:19.273Z,98642.00
2022-11-14T22:39:06.766Z,98635.00
2022-11-14T22:41:54.237Z,98634.00
2022-11-14T22:44:41.728Z,98645.00
2022-11-14T22:47:29.197Z,98639.00
2022-11-14T22:50:16.888Z,98627.00
2022-11-14T22:53:04.334Z,98634.00
2022-11-14T22:55:51.991Z,98627.00
2022-11-14T22:58:42.913Z,98629.00
2022-11-14T23:01:32.671Z,98636.00
2022-11-14T23:04:20.102Z,98644.00
2022-11-14T23:07:07.693Z,98640.00
2022-11-14T23:09:55.163Z,98638.00
2022-11-14T23:12:42.642Z,98627.00
2022-11-14T23:15:30.422Z,98618.00
2022-11-14T23:18:17.903Z,98621.00
2022-11-14T23:21:11.281Z,98624.00
2022-11-14T23:24:02.807Z,98615.00
2022-11-14T23:26:50.391Z,98616.00
2022-11-14T23:29:37.806Z,98612.00
2022-11-14T23:32:27.996Z,98609.00
2022-11-14T23:35:15.613Z,98610.00
2022-11-14T23:38:04.913Z,98613.00
2022-11-14T23:40:57.985Z,98616.00
2022-11-14T23:43:46.749Z,98621.00
2022-11-14T23:46:34.217Z,98621.00
2022-11-14T23:49:21.698Z,98611.00
2022-11-14T23:52:09.153Z,98610.00
2022-11-14T23:54:56.634Z,98609.00
2022-11-14T23:57:44.119Z,98606.00
